Killarney, Canada
Current Conditions -  °F | °C
As of 10:53 PM on Sunday 23 Nov 2014 (Local Time) from CYZE Reporting Station
Moderate Rain Moderate Rain  
Wind Chill: 39°   Ceiling: 600
Heat Index: 45°   Visibility: 2.5mi
Dew Point: 45°   Wind: 10mph
Humidity: 100%   Direction: 130°SE
Pressure: 29.49"   Gusts: NA
Location:  45.98°N, 81.5°W
Report Text: CYZE 240353Z AUTO 13009KT 2 1/2SM RA BR OVC006 07/07 A2949 RMK PRESFR PCPN 2.8MM PAST HR SLP990
Loading
Personal Weather Stations






























Interactive Weather Map New forecast layout! Learn more

10-Day Weather Forecast

Advertisements
Track Severe Weather on mobile